• Join FlightAware (Why Join?)
  • Login
  • US Flag 
10:11AM EDT


 

Airport Tracker/Info


-or-


 

Live Flight TrackerFlight Track Log ✈ AWE4096 ✈ 05-May-2013 ✈ KIND - KDCA

Flight Track Log - Related Links

Times and Time Zones

All times are in EDT time to prevent confusion due to time zone crossing. See the AWE4096 flight status page for this flight to view local times or setup timezone preferences in your user account.

Time Position Orientation Groundspeed Altitude Reporting Facility
EDT Latitude Longitude Course Direction KTS MPH feet Rate Location/Type
06:21AM 39.7167 -86.2833 70° East 171 197 1,300  Level Indianapolis TRACON
06:21AM 39.7333 -86.2500 57° Northeast 162 186 2,400 2,040 Climbing Indianapolis TRACON
06:23AM 39.7666 -85.8844 79° East  Level FlightAware Approximate
06:23AM 39.7519 -86.1447 77° East 209 241 5,400  Level Indianapolis Center
06:24AM 39.7861 -85.7503 78° East  Level FlightAware Approximate
06:24AM 39.7658 -86.0567 78° East 238 274 7,700  Level Indianapolis Center
06:25AM 39.8083 -85.6169 78° East  Level FlightAware Approximate
06:25AM 39.7789 -85.9694 79° East 246 283 10,300  Level Indianapolis Center
06:26AM 39.8395 -85.4868 70° East  Level FlightAware Approximate
06:26AM 39.7928 -85.8717 79° East 274 315 11,700  Level Indianapolis Center
06:27AM 39.8083 -85.7672 79° East 294 338 13,500 1,800 Climbing Indianapolis Center
06:28AM 39.8242 -85.6547 80° East 313 360 15,300 1,680 Climbing Indianapolis Center
06:29AM 39.8411 -85.5392 79° East 324 373 16,900 1,440 Climbing Indianapolis Center
06:30AM 39.8586 -85.4225 79° East 330 380 18,300 1,140 Climbing Indianapolis Center
06:31AM 39.8750 -85.2994 80° East 345 397 19,300 1,020 Climbing Indianapolis Center
06:32AM 39.8872 -85.1736 83° East 351 404 20,400 1,080 Climbing Indianapolis Center
06:33AM 39.8931 -85.0439 87° East 359 413 21,500 1,140 Climbing Indianapolis Center
06:34AM 39.9008 -84.9142 85° East 360 414 22,700 1,080 Climbing Indianapolis Center
06:35AM 39.9094 -84.7694 86° East 366 421 23,700 840 Climbing Indianapolis Center
06:36AM 39.9150 -84.6353 87° East 368 423 24,500 840 Climbing Indianapolis Center
06:37AM 39.9225 -84.4986 86° East 375 432 25,400 780 Climbing Indianapolis Center
06:38AM 39.9292 -84.3611 86° East 377 434 26,100 600 Climbing Indianapolis Center
06:39AM 39.9347 -84.2439 86° East 384 442 26,700 600 Climbing Indianapolis Center
06:40AM 39.9533 -84.1025 80° East 391 450 27,400 840 Climbing Indianapolis Center
06:41AM 39.9731 -83.9600 80° East 396 456 28,500 900 Climbing Indianapolis Center
06:42AM 39.9917 -83.8194 80° East 390 449 29,300 840 Climbing Indianapolis Center
06:43AM 40.0103 -83.6783 80° East 390 449 30,200 660 Climbing Indianapolis Center
06:44AM 40.0300 -83.5364 80° East 390 449 30,700 360 Climbing Indianapolis Center
06:45AM 40.0486 -83.3914 80° East 395 455 31,000 120 Climbing Indianapolis Center
06:46AM 40.0675 -83.2481 80° East 394 453 31,000  Level Indianapolis Center
06:47AM 40.0858 -83.1047 80° East 396 456 31,000  Level Indianapolis Center
06:48AM 40.0750 -82.9647 96° East 390 449 31,000  Level Indianapolis Center
06:49AM 40.0425 -82.8300 107° East 385 443 31,000  Level Indianapolis Center
06:50AM 40.0111 -82.6956 107° East 386 444 31,000  Level Indianapolis Center
06:51AM 39.9800 -82.5608 107° East 384 442 31,000  Level Indianapolis Center
06:52AM 39.9469 -82.4272 108° East 383 441 31,000  Level Indianapolis Center
06:53AM 39.9147 -82.2922 107° East 387 445 31,000  Level Indianapolis Center
06:54AM 39.8828 -82.1572 107° East 387 445 31,000  Level Indianapolis Center
06:55AM 39.8503 -82.0206 107° East 392 451 31,000  Level Indianapolis Center
06:56AM 39.8167 -81.8839 108° East 392 451 31,000  Level Indianapolis Center
06:57AM 39.7836 -81.7494 108° East 390 449 31,000  Level Indianapolis Center
06:58AM 39.7506 -81.6139 108° East 391 450 31,000  Level Indianapolis Center
06:59AM 39.7258 -81.5033 106° East 385 443 31,000  Level Cleveland Center
07:00AM 39.6933 -81.3681 107° East 385 443 31,000  Level Cleveland Center
07:01AM 39.6589 -81.2328 108° East 385 443 31,000  Level Cleveland Center
07:02AM 39.6242 -81.0978 108° East 385 443 31,000  Level Cleveland Center
07:03AM 39.5892 -80.9603 108° East 390 449 31,000  Level Cleveland Center
07:04AM 39.5542 -80.8119 107° East 408 470 31,000  Level Cleveland Center
07:05AM 39.5147 -80.6639 109° East 420 483 31,000  Level Cleveland Center
07:06AM 39.4719 -80.5008 109° East 433 498 31,000  Level Washington Center
07:07AM 39.4358 -80.3614 108° East 433 498 31,000  Level Washington Center
07:08AM 39.4000 -80.2114 107° East 433 498 31,000  Level Washington Center
07:09AM 39.3597 -80.0639 109° East 433 498 31,000  Level Washington Center
07:10AM 39.3194 -79.9136 109° East 433 498 31,000 -300 Level Washington Center
07:11AM 39.2914 -79.7617 103° East 433 498 30,500 -1,080 Descending Washington Center
07:12AM 39.2800 -79.6056 95° East 433 498 28,900 -1,680 Descending Washington Center
07:13AM 39.2683 -79.4522 96° East 433 498 27,200 -1,740 Descending Washington Center
07:14AM 39.2564 -79.3067 96° East 421 484 25,500 -1,620 Descending Washington Center
07:15AM 39.2419 -79.1614 97° East 413 475 24,100 -780 Descending Washington Center
07:16AM 39.2314 -79.0242 96° East 402 463 24,000 -360 Descending Washington Center
07:17AM 39.2164 -78.8842 98° East 390 449 23,400 -1,200 Descending Washington Center
07:18AM 39.2033 -78.7494 97° East 390 449 21,700 -2,040 Descending Washington Center
07:19AM 39.1900 -78.6178 97° East 384 442 19,400 -2,280 Descending Washington Center
07:20AM 39.1767 -78.4861 97° East 376 433 17,200 -2,040 Descending Washington Center
07:21AM 39.1628 -78.3703 99° East 353 406 15,500 -1,680 Descending Washington Center
07:22AM 39.1361 -78.2569 107° East 338 389 14,000 -780 Descending Washington Center
07:23AM 39.1072 -78.1436 108° East 325 374 14,000 -480 Level Washington Center
07:24AM 39.0806 -78.0331 107° East 325 374 13,100 -1,020 Descending Washington Center
07:25AM 39.0494 -77.9197 109° East 320 368 12,000 -720 Descending Washington Center
07:26AM 39.0242 -77.8172 108° East 306 352 11,700 -1,020 Descending Washington Center
07:27AM 39.0008 -77.7283 109° East 296 341 10,000 -1,500 Descending Washington Center
07:28AM 38.9753 -77.6317 109° East 277 319 8,800 -1,200 Descending Washington Center
07:29AM 38.9667 -77.5667 100° East 265 305 8,100 -600 Descending Potomac TRACON
07:29AM 38.9333 -77.5000 123° Southeast 264 304 8,000 -180 Descending Potomac TRACON
07:30AM 38.9000 -77.4333 123° Southeast 270 311 7,800 -900 Descending Potomac TRACON
07:31AM 38.8667 -77.3500 117° Southeast 261 300 6,400 -900 Descending Potomac TRACON
07:32AM 38.8333 -77.2667 117° Southeast 260 299 6,000 -240 Descending Potomac TRACON
07:33AM 38.8000 -77.2000 123° Southeast 255 293 6,000 -240 Level Potomac TRACON
07:34AM 38.7667 -77.1167 117° Southeast 222 255 5,600 -900 Descending Potomac TRACON
07:35AM 38.7000 -77.1167 180° South 219 252 4,300 -1,500 Descending Potomac TRACON
07:36AM 38.6500 -77.1000 165° South 218 251 2,800 -900 Descending Potomac TRACON
07:37AM 38.6667 -77.0500 67° East 200 230 2,500 -180 Descending Potomac TRACON
07:38AM 38.7167 -77.0167 27° Northeast 193 222 2,500 -420 Level Potomac TRACON
07:39AM 38.7667 -77.0333 345° North 169 194 1,700 -900 Descending Potomac TRACON
07:40AM 38.8000 -77.0333 360° North 144 166 800 -900 Descending Potomac TRACON